Rougon, Louisiana
Current Conditions -  °F | °C
As of 7:35 AM on Friday 19 Dec 2014 (Local Time) from KHZR Reporting Station
Drizzle Drizzle  
Wind Chill: 53°   Ceiling: 600
Heat Index: 53°   Visibility: 10mi
Dew Point: 53°   Wind: 6mph
Humidity: 98%   Direction: 50°NE
Pressure: 30.13"   Gusts: NA
Location:  30.61°N, 91.37°W
Report Text: KHZR 191335Z AUTO 05005KT 10SM -DZ OVC006 12/12 A3013 RMK AO2 P0002 T01180115
Loading
Personal Weather Stations






























Interactive Weather Map New forecast layout! Learn more

10-Day Weather Forecast

Advertisements
Track Severe Weather on mobile